sensor_id;sensor_type;location;lat;lon;timestamp;pressure;altitude;pressure_sealevel;temperature;humidity
62895;BME280;49204;44.916;37.998;2023-03-15T00:00:11;101096.22;;;5.63;72.24
62895;BME280;49204;44.916;37.998;2023-03-15T00:02:40;101087.91;;;5.65;72.15
62895;BME280;49204;44.916;37.998;2023-03-15T00:05:10;101083.53;;;5.67;72.13
62895;BME280;49204;44.916;37.998;2023-03-15T00:07:42;101074.77;;;5.70;72.14
62895;BME280;49204;44.916;37.998;2023-03-15T00:10:11;101081.29;;;5.71;72.23
62895;BME280;49204;44.916;37.998;2023-03-15T00:12:40;101081.71;;;5.74;72.27
62895;BME280;49204;44.916;37.998;2023-03-15T00:15:12;101081.66;;;5.75;72.33
62895;BME280;49204;44.916;37.998;2023-03-15T00:17:40;101077.31;;;5.77;72.32
62895;BME280;49204;44.916;37.998;2023-03-15T00:20:09;101071.62;;;5.79;72.25
62895;BME280;49204;44.916;37.998;2023-03-15T00:22:38;101070.71;;;5.80;72.19
62895;BME280;49204;44.916;37.998;2023-03-15T00:25:08;101067.23;;;5.82;72.17
62895;BME280;49204;44.916;37.998;2023-03-15T00:27:37;101066.78;;;5.82;72.21
62895;BME280;49204;44.916;37.998;2023-03-15T00:30:06;101068.53;;;5.82;72.27
62895;BME280;49204;44.916;37.998;2023-03-15T00:32:35;101064.61;;;5.82;72.27
62895;BME280;49204;44.916;37.998;2023-03-15T00:35:05;101058.08;;;5.82;72.23
62895;BME280;49204;44.916;37.998;2023-03-15T00:37:35;101057.61;;;5.84;72.24
62895;BME280;49204;44.916;37.998;2023-03-15T00:40:04;101063.71;;;5.83;72.27
62895;BME280;49204;44.916;37.998;2023-03-15T00:42:36;101059.42;;;5.78;72.35
62895;BME280;49204;44.916;37.998;2023-03-15T00:45:05;101057.72;;;5.77;72.33
62895;BME280;49204;44.916;37.998;2023-03-15T00:47:34;101055.11;;;5.76;72.33
62895;BME280;49204;44.916;37.998;2023-03-15T00:50:02;101052.48;;;5.77;72.28
62895;BME280;49204;44.916;37.998;2023-03-15T00:52:36;101055.09;;;5.77;72.25
62895;BME280;49204;44.916;37.998;2023-03-15T00:55:05;101055.94;;;5.79;72.27
62895;BME280;49204;44.916;37.998;2023-03-15T00:57:34;101048.97;;;5.78;72.44
62895;BME280;49204;44.916;37.998;2023-03-15T01:00:03;101056.81;;;5.78;72.53
62895;BME280;49204;44.916;37.998;2023-03-15T01:02:33;101048.48;;;5.82;72.49
62895;BME280;49204;44.916;37.998;2023-03-15T01:05:06;101055.00;;;5.84;72.52
62895;BME280;49204;44.916;37.998;2023-03-15T01:07:35;101056.27;;;5.87;72.48
62895;BME280;49204;44.916;37.998;2023-03-15T01:10:05;101048.44;;;5.87;72.35
62895;BME280;49204;44.916;37.998;2023-03-15T01:12:34;101055.80;;;5.89;72.33
62895;BME280;49204;44.916;37.998;2023-03-15T01:15:05;101059.73;;;5.89;72.33
62895;BME280;49204;44.916;37.998;2023-03-15T01:17:34;101058.82;;;5.90;72.35
62895;BME280;49204;44.916;37.998;2023-03-15T01:20:04;101050.98;;;5.90;72.40
62895;BME280;49204;44.916;37.998;2023-03-15T01:22:33;101056.64;;;5.91;72.48
62895;BME280;49204;44.916;37.998;2023-03-15T01:25:02;101054.03;;;5.91;72.43
62895;BME280;49204;44.916;37.998;2023-03-15T01:27:30;101057.05;;;5.92;72.45
62895;BME280;49204;44.916;37.998;2023-03-15T01:30:00;101053.13;;;5.92;72.50
62895;BME280;49204;44.916;37.998;2023-03-15T01:32:29;101051.38;;;5.94;72.62
62895;BME280;49204;44.916;37.998;2023-03-15T01:34:58;101053.55;;;5.96;72.61
62895;BME280;49204;44.916;37.998;2023-03-15T01:37:26;101061.80;;;5.97;72.58
62895;BME280;49204;44.916;37.998;2023-03-15T01:39:55;101060.08;;;5.94;72.59
62895;BME280;49204;44.916;37.998;2023-03-15T01:42:24;101059.70;;;5.90;72.80
62895;BME280;49204;44.916;37.998;2023-03-15T01:44:55;101055.80;;;5.89;72.72
62895;BME280;49204;44.916;37.998;2023-03-15T01:47:26;101062.32;;;5.90;72.80
62895;BME280;49204;44.916;37.998;2023-03-15T01:50:02;101057.48;;;5.93;72.78
62895;BME280;49204;44.916;37.998;2023-03-15T01:52:34;101045.72;;;5.93;72.80
62895;BME280;49204;44.916;37.998;2023-03-15T01:55:15;101041.80;;;5.93;72.77
62895;BME280;49204;44.916;37.998;2023-03-15T01:57:50;101042.67;;;5.92;72.81
62895;BME280;49204;44.916;37.998;2023-03-15T02:00:22;101050.58;;;5.89;73.07
62895;BME280;49204;44.916;37.998;2023-03-15T02:02:50;101059.29;;;5.88;73.25
62895;BME280;49204;44.916;37.998;2023-03-15T02:05:24;101056.67;;;5.88;73.30
62895;BME280;49204;44.916;37.998;2023-03-15T02:07:54;101059.36;;;5.85;73.27
62895;BME280;49204;44.916;37.998;2023-03-15T02:10:30;101044.91;;;5.88;73.24
62895;BME280;49204;44.916;37.998;2023-03-15T02:13:00;101040.11;;;5.90;73.15
62895;BME280;49204;44.916;37.998;2023-03-15T02:15:31;101039.19;;;5.93;73.11
62895;BME280;49204;44.916;37.998;2023-03-15T02:18:01;101043.10;;;5.93;73.17
62895;BME280;49204;44.916;37.998;2023-03-15T02:20:43;101026.95;;;5.95;73.23
62895;BME280;49204;44.916;37.998;2023-03-15T02:23:13;101031.76;;;5.95;73.31
62895;BME280;49204;44.916;37.998;2023-03-15T02:25:51;101033.05;;;5.97;73.55
62895;BME280;49204;44.916;37.998;2023-03-15T02:28:20;101023.43;;;5.99;73.53
62895;BME280;49204;44.916;37.998;2023-03-15T02:30:49;101021.23;;;6.02;73.57
62895;BME280;49204;44.916;37.998;2023-03-15T02:35:53;101018.12;;;6.05;73.39
62895;BME280;49204;44.916;37.998;2023-03-15T02:38:23;101009.38;;;6.06;73.27
62895;BME280;49204;44.916;37.998;2023-03-15T02:40:52;101001.97;;;6.07;73.24
62895;BME280;49204;44.916;37.998;2023-03-15T02:43:24;101010.20;;;6.10;73.27
62895;BME280;49204;44.916;37.998;2023-03-15T02:45:53;101008.03;;;6.09;73.17
62895;BME280;49204;44.916;37.998;2023-03-15T02:48:23;101007.56;;;6.11;73.11
62895;BME280;49204;44.916;37.998;2023-03-15T02:50:51;101008.44;;;6.10;73.16
62895;BME280;49204;44.916;37.998;2023-03-15T02:53:20;100996.30;;;6.06;73.24
62895;BME280;49204;44.916;37.998;2023-03-15T02:55:48;101001.53;;;6.06;73.31
62895;BME280;49204;44.916;37.998;2023-03-15T02:58:18;100998.91;;;6.08;73.37
62895;BME280;49204;44.916;37.998;2023-03-15T03:00:48;101003.20;;;6.10;73.38
62895;BME280;49204;44.916;37.998;2023-03-15T03:03:18;100999.28;;;6.10;73.26
62895;BME280;49204;44.916;37.998;2023-03-15T03:05:47;100998.41;;;6.11;73.30
62895;BME280;49204;44.916;37.998;2023-03-15T03:08:16;100994.48;;;6.11;73.31
62895;BME280;49204;44.916;37.998;2023-03-15T03:10:44;100988.78;;;6.13;73.32
62895;BME280;49204;44.916;37.998;2023-03-15T03:13:13;100982.20;;;6.16;73.24
62895;BME280;49204;44.916;37.998;2023-03-15T03:15:42;100984.39;;;6.15;73.25
62895;BME280;49204;44.916;37.998;2023-03-15T03:18:13;100983.94;;;6.16;73.27
62895;BME280;49204;44.916;37.998;2023-03-15T03:20:42;100976.98;;;6.16;73.21
62895;BME280;49204;44.916;37.998;2023-03-15T03:23:12;100977.38;;;6.17;73.13
62895;BME280;49204;44.916;37.998;2023-03-15T03:25:41;100969.52;;;6.19;73.10
62895;BME280;49204;44.916;37.998;2023-03-15T03:28:12;100967.80;;;6.18;73.17
62895;BME280;49204;44.916;37.998;2023-03-15T03:30:40;100970.01;;;6.15;73.28
62895;BME280;49204;44.916;37.998;2023-03-15T03:33:09;100971.81;;;6.12;73.38
62895;BME280;49204;44.916;37.998;2023-03-15T03:35:37;100960.94;;;6.12;73.34
62895;BME280;49204;44.916;37.998;2023-03-15T03:38:07;100962.64;;;6.13;73.25
62895;BME280;49204;44.916;37.998;2023-03-15T03:40:38;100954.40;;;6.12;73.39
62895;BME280;49204;44.916;37.998;2023-03-15T03:43:08;100969.69;;;6.08;73.63
62895;BME280;49204;44.916;37.998;2023-03-15T03:45:37;100967.51;;;6.09;73.69
62895;BME280;49204;44.916;37.998;2023-03-15T03:48:06;100960.06;;;6.10;73.60
62895;BME280;49204;44.916;37.998;2023-03-15T03:50:35;100961.35;;;6.12;73.60
62895;BME280;49204;44.916;37.998;2023-03-15T03:53:04;100961.33;;;6.13;73.54
62895;BME280;49204;44.916;37.998;2023-03-15T03:55:34;100970.03;;;6.14;73.54
62895;BME280;49204;44.916;37.998;2023-03-15T03:58:02;100961.30;;;6.16;73.48
62895;BME280;49204;44.916;37.998;2023-03-15T04:00:42;100964.73;;;6.18;73.46
62895;BME280;49204;44.916;37.998;2023-03-15T04:03:11;100984.75;;;6.19;73.35
62895;BME280;49204;44.916;37.998;2023-03-15T04:05:41;100979.58;;;6.18;73.36
62895;BME280;49204;44.916;37.998;2023-03-15T04:08:12;100976.98;;;6.16;73.38
62895;BME280;49204;44.916;37.998;2023-03-15T04:10:40;100981.77;;;6.15;73.50
62895;BME280;49204;44.916;37.998;2023-03-15T04:13:11;100983.94;;;6.16;73.44
62895;BME280;49204;44.916;37.998;2023-03-15T04:15:39;100973.45;;;6.17;73.38
62895;BME280;49204;44.916;37.998;2023-03-15T04:18:09;100966.02;;;6.20;73.43
62895;BME280;49204;44.916;37.998;2023-03-15T04:20:39;100966.38;;;6.24;73.46
62895;BME280;49204;44.916;37.998;2023-03-15T04:23:10;100969.37;;;6.27;73.40
62895;BME280;49204;44.916;37.998;2023-03-15T04:25:50;100968.45;;;6.31;73.39
62895;BME280;49204;44.916;37.998;2023-03-15T04:28:25;100972.30;;;6.34;73.35
62895;BME280;49204;44.916;37.998;2023-03-15T04:30:55;100973.56;;;6.37;73.36
62895;BME280;49204;44.916;37.998;2023-03-15T04:33:38;100964.37;;;6.40;73.35
62895;BME280;49204;44.916;37.998;2023-03-15T04:36:18;100964.75;;;6.43;73.35
62895;BME280;49204;44.916;37.998;2023-03-15T04:39:04;100976.02;;;6.46;73.33
62895;BME280;49204;44.916;37.998;2023-03-15T04:41:47;100972.05;;;6.49;73.31
62895;BME280;49204;44.916;37.998;2023-03-15T04:44:24;100975.41;;;6.54;73.24
62895;BME280;49204;44.916;37.998;2023-03-15T04:47:12;100975.37;;;6.57;73.15
62895;BME280;49204;44.916;37.998;2023-03-15T04:49:42;100977.46;;;6.63;73.05
62895;BME280;49204;44.916;37.998;2023-03-15T04:52:27;100975.20;;;6.67;72.98
62895;BME280;49204;44.916;37.998;2023-03-15T04:55:07;100969.00;;;6.71;72.86
62895;BME280;49204;44.916;37.998;2023-03-15T04:57:47;100971.14;;;6.73;72.87
62895;BME280;49204;44.916;37.998;2023-03-15T05:00:20;100975.87;;;6.76;72.88
62895;BME280;49204;44.916;37.998;2023-03-15T05:02:59;100976.66;;;6.82;72.81
62895;BME280;49204;44.916;37.998;2023-03-15T05:05:46;100976.12;;;6.87;72.80
62895;BME280;49204;44.916;37.998;2023-03-15T05:08:19;100979.94;;;6.91;72.74
62895;BME280;49204;44.916;37.998;2023-03-15T05:10:49;100982.94;;;6.95;72.69
62895;BME280;49204;44.916;37.998;2023-03-15T05:13:29;100985.08;;;6.98;72.63
62895;BME280;49204;44.916;37.998;2023-03-15T05:16:06;100977.99;;;7.03;72.55
62895;BME280;49204;44.916;37.998;2023-03-15T05:18:39;100989.69;;;7.06;72.48
62895;BME280;49204;44.916;37.998;2023-03-15T05:21:26;100989.64;;;7.09;72.43
62895;BME280;49204;44.916;37.998;2023-03-15T05:23:58;100983.92;;;7.11;72.40
62895;BME280;49204;44.916;37.998;2023-03-15T05:26:34;100978.20;;;7.13;72.46
62895;BME280;49204;44.916;37.998;2023-03-15T05:29:14;100959.47;;;7.12;72.45
62895;BME280;49204;44.916;37.998;2023-03-15T05:31:45;100983.89;;;7.12;72.47
62895;BME280;49204;44.916;37.998;2023-03-15T05:34:24;100978.57;;;7.15;72.54
62895;BME280;49204;44.916;37.998;2023-03-15T05:37:01;100986.34;;;7.20;72.53
62895;BME280;49204;44.916;37.998;2023-03-15T05:39:31;100983.67;;;7.23;72.48
62895;BME280;49204;44.916;37.998;2023-03-15T05:42:03;100979.77;;;7.22;72.52
62895;BME280;49204;44.916;37.998;2023-03-15T05:44:52;100975.76;;;7.25;72.50
62895;BME280;49204;44.916;37.998;2023-03-15T05:47:22;100974.36;;;7.29;72.45
62895;BME280;49204;44.916;37.998;2023-03-15T05:50:05;100978.15;;;7.35;72.40
62895;BME280;49204;44.916;37.998;2023-03-15T05:52:42;100971.97;;;7.40;72.30
62895;BME280;49204;44.916;37.998;2023-03-15T05:55:21;100964.97;;;7.40;72.26
62895;BME280;49204;44.916;37.998;2023-03-15T05:58:06;100966.30;;;7.39;72.25
62895;BME280;49204;44.916;37.998;2023-03-15T06:00:37;100975.47;;;7.39;72.26
62895;BME280;49204;44.916;37.998;2023-03-15T06:03:07;100961.91;;;7.39;72.28
62895;BME280;49204;44.916;37.998;2023-03-15T06:05:41;100959.67;;;7.43;72.38
62895;BME280;49204;44.916;37.998;2023-03-15T06:08:11;100958.17;;;7.51;72.35
62895;BME280;49204;44.916;37.998;2023-03-15T06:10:41;100968.48;;;7.59;72.24
62895;BME280;49204;44.916;37.998;2023-03-15T06:13:11;100954.06;;;7.59;72.25
62895;BME280;49204;44.916;37.998;2023-03-15T06:15:40;100944.89;;;7.59;72.22
62895;BME280;49204;44.916;37.998;2023-03-15T06:18:09;100941.66;;;7.65;72.16
62895;BME280;49204;44.916;37.998;2023-03-15T06:20:40;100947.99;;;7.74;72.07
62895;BME280;49204;44.916;37.998;2023-03-15T06:23:10;100944.69;;;7.86;71.97
62895;BME280;49204;44.916;37.998;2023-03-15T06:25:43;100940.83;;;8.01;71.77
62895;BME280;49204;44.916;37.998;2023-03-15T06:28:12;100928.97;;;8.19;71.51
62895;BME280;49204;44.916;37.998;2023-03-15T06:30:43;100928.95;;;8.37;71.37
62895;BME280;49204;44.916;37.998;2023-03-15T06:33:12;100928.13;;;8.53;71.18
62895;BME280;49204;44.916;37.998;2023-03-15T06:35:41;100917.38;;;8.62;70.95
62895;BME280;49204;44.916;37.998;2023-03-15T06:38:09;100921.63;;;8.66;70.78
62895;BME280;49204;44.916;37.998;2023-03-15T06:40:39;100919.08;;;8.63;70.68
62895;BME280;49204;44.916;37.998;2023-03-15T06:43:08;100924.82;;;8.61;70.59
62895;BME280;49204;44.916;37.998;2023-03-15T06:45:38;100930.03;;;8.62;70.58
62895;BME280;49204;44.916;37.998;2023-03-15T06:48:07;100921.80;;;8.60;70.69
62895;BME280;49204;44.916;37.998;2023-03-15T06:50:36;100922.63;;;8.62;70.70
62895;BME280;49204;44.916;37.998;2023-03-15T06:53:04;100926.95;;;8.63;70.57
62895;BME280;49204;44.916;37.998;2023-03-15T06:55:33;100923.75;;;8.68;70.64
62895;BME280;49204;44.916;37.998;2023-03-15T06:58:02;100936.27;;;8.75;70.47
62895;BME280;49204;44.916;37.998;2023-03-15T07:00:30;100927.81;;;8.80;70.37
62895;BME280;49204;44.916;37.998;2023-03-15T07:02:59;100912.91;;;8.95;70.42
62895;BME280;49204;44.916;37.998;2023-03-15T07:05:28;100917.07;;;9.17;70.08
62895;BME280;49204;44.916;37.998;2023-03-15T07:07:57;100904.02;;;9.42;69.71
62895;BME280;49204;44.916;37.998;2023-03-15T07:10:26;100907.40;;;9.61;69.43
62895;BME280;49204;44.916;37.998;2023-03-15T07:12:54;100905.91;;;9.92;68.84
62895;BME280;49204;44.916;37.998;2023-03-15T07:15:23;100902.21;;;10.50;68.38
62895;BME280;49204;44.916;37.998;2023-03-15T07:17:52;100898.14;;;11.88;67.34
62895;BME280;49204;44.916;37.998;2023-03-15T07:20:20;100903.53;;;13.16;65.70
62895;BME280;49204;44.916;37.998;2023-03-15T07:22:49;100893.50;;;13.69;64.37
62895;BME280;49204;44.916;37.998;2023-03-15T07:25:18;100893.64;;;13.66;63.90
62895;BME280;49204;44.916;37.998;2023-03-15T07:27:51;100892.95;;;13.35;64.13
62895;BME280;49204;44.916;37.998;2023-03-15T07:30:21;100897.59;;;13.10;64.37
62895;BME280;49204;44.916;37.998;2023-03-15T07:32:49;100896.41;;;12.69;63.64
62895;BME280;49204;44.916;37.998;2023-03-15T07:35:18;100893.56;;;12.34;64.21
62895;BME280;49204;44.916;37.998;2023-03-15T07:37:46;100894.34;;;12.06;64.56
62895;BME280;49204;44.916;37.998;2023-03-15T07:40:15;100886.06;;;11.83;64.58
62895;BME280;49204;44.916;37.998;2023-03-15T07:42:44;100885.83;;;11.67;64.70
62895;BME280;49204;44.916;37.998;2023-03-15T07:45:13;100891.64;;;11.65;64.82
62895;BME280;49204;44.916;37.998;2023-03-15T07:47:42;100885.98;;;11.74;64.68
62895;BME280;49204;44.916;37.998;2023-03-15T07:50:11;100879.00;;;11.83;64.46
62895;BME280;49204;44.916;37.998;2023-03-15T07:52:39;100878.59;;;12.14;64.11
62895;BME280;49204;44.916;37.998;2023-03-15T07:55:08;100880.45;;;12.52;63.84
62895;BME280;49204;44.916;37.998;2023-03-15T07:57:37;100865.31;;;12.85;63.34
62895;BME280;49204;44.916;37.998;2023-03-15T08:00:07;100863.09;;;12.94;62.99
62895;BME280;49204;44.916;37.998;2023-03-15T08:02:39;100855.62;;;12.94;62.95
62895;BME280;49204;44.916;37.998;2023-03-15T08:05:08;100855.62;;;12.94;62.59
62895;BME280;49204;44.916;37.998;2023-03-15T08:07:37;100856.21;;;13.01;62.24
62895;BME280;49204;44.916;37.998;2023-03-15T08:10:07;100850.05;;;13.00;62.14
62895;BME280;49204;44.916;37.998;2023-03-15T08:12:35;100852.52;;;13.13;62.25
62895;BME280;49204;44.916;37.998;2023-03-15T08:15:06;100848.65;;;13.29;62.11
62895;BME280;49204;44.916;37.998;2023-03-15T08:17:35;100845.13;;;13.48;61.56
62895;BME280;49204;44.916;37.998;2023-03-15T08:20:05;100844.78;;;13.82;60.83
62895;BME280;49204;44.916;37.998;2023-03-15T08:22:36;100840.19;;;13.85;60.40
62895;BME280;49204;44.916;37.998;2023-03-15T08:25:05;100837.92;;;14.04;60.28
62895;BME280;49204;44.916;37.998;2023-03-15T08:27:36;100846.38;;;14.28;59.84
62895;BME280;49204;44.916;37.998;2023-03-15T08:30:05;100832.69;;;14.78;59.11
62895;BME280;49204;44.916;37.998;2023-03-15T08:32:34;100833.79;;;15.44;58.14
62895;BME280;49204;44.916;37.998;2023-03-15T08:35:03;100819.21;;;15.75;57.76
62895;BME280;49204;44.916;37.998;2023-03-15T08:37:32;100825.34;;;15.68;57.78
62895;BME280;49204;44.916;37.998;2023-03-15T08:40:01;100818.39;;;15.66;57.50
62895;BME280;49204;44.916;37.998;2023-03-15T08:42:31;100821.36;;;15.68;56.84
62895;BME280;49204;44.916;37.998;2023-03-15T08:44:59;100812.83;;;15.70;56.36
62895;BME280;49204;44.916;37.998;2023-03-15T08:47:28;100803.63;;;15.92;55.64
62895;BME280;49204;44.916;37.998;2023-03-15T08:49:57;100799.92;;;16.52;55.26
62895;BME280;49204;44.916;37.998;2023-03-15T08:52:26;100786.34;;;17.05;54.29
62895;BME280;49204;44.916;37.998;2023-03-15T08:54:54;100783.28;;;17.84;53.35
62895;BME280;49204;44.916;37.998;2023-03-15T08:57:24;100765.00;;;18.55;52.26
62895;BME280;49204;44.916;37.998;2023-03-15T08:59:53;100763.09;;;19.18;51.00
62895;BME280;49204;44.916;37.998;2023-03-15T09:02:22;100768.50;;;19.35;50.12
62895;BME280;49204;44.916;37.998;2023-03-15T09:04:50;100769.03;;;18.61;50.57
62895;BME280;49204;44.916;37.998;2023-03-15T09:07:19;100765.11;;;17.91;51.14
62895;BME280;49204;44.916;37.998;2023-03-15T09:09:48;100766.17;;;17.48;51.54
62895;BME280;49204;44.916;37.998;2023-03-15T09:12:19;100761.72;;;17.09;51.84
62895;BME280;49204;44.916;37.998;2023-03-15T09:14:47;100767.16;;;16.66;52.23
62895;BME280;49204;44.916;37.998;2023-03-15T09:17:16;100772.90;;;16.24;52.79
62895;BME280;49204;44.916;37.998;2023-03-15T09:19:45;100775.34;;;15.83;53.15
62895;BME280;49204;44.916;37.998;2023-03-15T09:22:13;100770.32;;;15.56;53.71
62895;BME280;49204;44.916;37.998;2023-03-15T09:24:42;100761.39;;;15.42;54.08
62895;BME280;49204;44.916;37.998;2023-03-15T09:27:11;100754.56;;;15.38;54.26
62895;BME280;49204;44.916;37.998;2023-03-15T09:29:39;100758.31;;;15.34;54.34
62895;BME280;49204;44.916;37.998;2023-03-15T09:32:08;100756.97;;;15.20;54.59
62895;BME280;49204;44.916;37.998;2023-03-15T09:34:38;100758.19;;;14.98;54.77
62895;BME280;49204;44.916;37.998;2023-03-15T09:37:08;100749.36;;;14.75;55.10
62895;BME280;49204;44.916;37.998;2023-03-15T09:39:37;100748.19;;;14.56;55.48
62895;BME280;49204;44.916;37.998;2023-03-15T09:42:10;100749.89;;;14.41;55.91
62895;BME280;49204;44.916;37.998;2023-03-15T09:44:51;100752.33;;;14.37;56.20
62895;BME280;49204;44.916;37.998;2023-03-15T09:47:29;100761.75;;;14.34;56.33
62895;BME280;49204;44.916;37.998;2023-03-15T09:50:28;100752.34;;;14.28;56.42
62895;BME280;49204;44.916;37.998;2023-03-15T09:53:05;100750.48;;;14.21;56.72
62895;BME280;49204;44.916;37.998;2023-03-15T09:55:34;100750.38;;;14.07;56.86
62895;BME280;49204;44.916;37.998;2023-03-15T09:58:09;100753.44;;;13.90;56.94
62895;BME280;49204;44.916;37.998;2023-03-15T10:00:46;100752.08;;;13.83;57.25
62895;BME280;49204;44.916;37.998;2023-03-15T10:03:30;100759.77;;;13.79;57.36
62895;BME280;49204;44.916;37.998;2023-03-15T10:06:09;100768.11;;;13.80;57.48
62895;BME280;49204;44.916;37.998;2023-03-15T10:08:32;100771.61;;;13.81;57.61
62895;BME280;49204;44.916;37.998;2023-03-15T10:11:41;100771.38;;;13.77;57.59
62895;BME280;49204;44.916;37.998;2023-03-15T10:17:36;100764.62;;;13.71;57.82
62895;BME280;49204;44.916;37.998;2023-03-15T10:20:12;100763.84;;;13.78;58.01
62895;BME280;49204;44.916;37.998;2023-03-15T10:22:46;100748.33;;;13.87;58.07
62895;BME280;49204;44.916;37.998;2023-03-15T10:25:17;100750.09;;;13.96;58.02
62895;BME280;49204;44.916;37.998;2023-03-15T10:30:31;100739.47;;;14.13;57.98
62895;BME280;49204;44.916;37.998;2023-03-15T10:33:03;100731.84;;;14.32;57.92
62895;BME280;49204;44.916;37.998;2023-03-15T10:35:32;100731.34;;;14.41;57.81
62895;BME280;49204;44.916;37.998;2023-03-15T10:38:01;100741.64;;;14.54;57.78
62895;BME280;49204;44.916;37.998;2023-03-15T10:40:50;100738.55;;;14.71;57.71
62895;BME280;49204;44.916;37.998;2023-03-15T10:43:27;100726.14;;;14.87;57.63
62895;BME280;49204;44.916;37.998;2023-03-15T10:46:20;100730.86;;;15.05;57.52
62895;BME280;49204;44.916;37.998;2023-03-15T10:48:50;100727.00;;;15.18;57.48
62895;BME280;49204;44.916;37.998;2023-03-15T10:51:22;100735.87;;;15.33;57.35
62895;BME280;49204;44.916;37.998;2023-03-15T10:56:46;100719.73;;;15.66;57.03
62895;BME280;49204;44.916;37.998;2023-03-15T10:59:20;100711.00;;;15.71;56.92
62895;BME280;49204;44.916;37.998;2023-03-15T11:01:52;100697.41;;;15.77;56.88
62895;BME280;49204;44.916;37.998;2023-03-15T11:04:23;100695.50;;;15.79;56.77
62895;BME280;49204;44.916;37.998;2023-03-15T11:07:00;100705.16;;;15.80;56.74
62895;BME280;49204;44.916;37.998;2023-03-15T11:09:53;100698.34;;;15.76;56.63
62895;BME280;49204;44.916;37.998;2023-03-15T11:12:28;100689.53;;;15.76;56.60
62895;BME280;49204;44.916;37.998;2023-03-15T11:14:58;100689.40;;;15.70;56.67
62895;BME280;49204;44.916;37.998;2023-03-15T11:17:33;100689.22;;;15.66;56.50
62895;BME280;49204;44.916;37.998;2023-03-15T11:20:15;100689.39;;;15.63;56.46
62895;BME280;49204;44.916;37.998;2023-03-15T11:22:39;100685.24;;;15.73;56.36
62895;BME280;49204;44.916;37.998;2023-03-15T11:25:15;100689.14;;;15.82;56.21
62895;BME280;49204;44.916;37.998;2023-03-15T11:27:45;100688.48;;;16.00;56.03
62895;BME280;49204;44.916;37.998;2023-03-15T11:30:17;100677.85;;;16.07;55.74
62895;BME280;49204;44.916;37.998;2023-03-15T11:32:46;100680.59;;;16.13;55.52
62895;BME280;49204;44.916;37.998;2023-03-15T11:35:23;100682.77;;;16.13;55.39
62895;BME280;49204;44.916;37.998;2023-03-15T11:38:02;100684.93;;;16.21;55.31
62895;BME280;49204;44.916;37.998;2023-03-15T11:40:37;100686.34;;;16.27;55.24
62895;BME280;49204;44.916;37.998;2023-03-15T11:43:09;100683.14;;;16.29;55.19
62895;BME280;49204;44.916;37.998;2023-03-15T11:45:43;100677.34;;;16.29;55.35
62895;BME280;49204;44.916;37.998;2023-03-15T11:48:43;100671.20;;;16.21;55.59
62895;BME280;49204;44.916;37.998;2023-03-15T11:51:05;100676.70;;;16.11;55.80
62895;BME280;49204;44.916;37.998;2023-03-15T11:53:42;100673.78;;;16.01;55.92
62895;BME280;49204;44.916;37.998;2023-03-15T11:56:24;100676.92;;;15.87;56.03
62895;BME280;49204;44.916;37.998;2023-03-15T12:01:34;100667.02;;;15.67;56.14
62895;BME280;49204;44.916;37.998;2023-03-15T12:06:55;100660.39;;;15.46;56.22
62895;BME280;49204;44.916;37.998;2023-03-15T12:15:13;100648.25;;;15.56;56.12
62895;BME280;49204;44.916;37.998;2023-03-15T12:17:40;100651.66;;;15.65;56.09
62895;BME280;49204;44.916;37.998;2023-03-15T12:23:05;100651.19;;;15.73;56.07
62895;BME280;49204;44.916;37.998;2023-03-15T12:25:43;100652.59;;;15.71;56.08
62895;BME280;49204;44.916;37.998;2023-03-15T12:28:07;100648.34;;;15.69;56.00
62895;BME280;49204;44.916;37.998;2023-03-15T12:30:43;100654.71;;;15.66;55.94
62895;BME280;49204;44.916;37.998;2023-03-15T12:33:18;100640.86;;;15.61;55.87
62895;BME280;49204;44.916;37.998;2023-03-15T12:35:48;100655.64;;;15.65;55.82
62895;BME280;49204;44.916;37.998;2023-03-15T12:38:21;100633.84;;;15.67;55.79
62895;BME280;49204;44.916;37.998;2023-03-15T12:40:53;100649.80;;;15.74;55.79
62895;BME280;49204;44.916;37.998;2023-03-15T12:43:43;100633.30;;;15.83;55.76
62895;BME280;49204;44.916;37.998;2023-03-15T12:51:58;100637.42;;;16.16;55.16
62895;BME280;49204;44.916;37.998;2023-03-15T12:57:26;100647.08;;;16.17;55.38
62895;BME280;49204;44.916;37.998;2023-03-15T12:59:58;100637.34;;;16.11;55.48
62895;BME280;49204;44.916;37.998;2023-03-15T13:03:09;100628.63;;;16.01;55.62
62895;BME280;49204;44.916;37.998;2023-03-15T13:05:23;100631.56;;;15.97;55.68
62895;BME280;49204;44.916;37.998;2023-03-15T13:13:38;100613.02;;;15.82;56.01
62895;BME280;49204;44.916;37.998;2023-03-15T13:16:17;100610.55;;;15.79;56.05
62895;BME280;49204;44.916;37.998;2023-03-15T13:18:57;100605.81;;;15.77;56.15
62895;BME280;49204;44.916;37.998;2023-03-15T13:21:25;100605.42;;;15.76;56.28
62895;BME280;49204;44.916;37.998;2023-03-15T13:23:57;100600.11;;;15.76;56.36
62895;BME280;49204;44.916;37.998;2023-03-15T13:26:57;100601.34;;;15.78;56.30
62895;BME280;49204;44.916;37.998;2023-03-15T13:29:32;100588.74;;;15.74;56.33
62895;BME280;49204;44.916;37.998;2023-03-15T13:32:10;100591.55;;;15.71;56.29
62895;BME280;49204;44.916;37.998;2023-03-15T13:34:36;100597.91;;;15.69;56.31
62895;BME280;49204;44.916;37.998;2023-03-15T13:37:22;100587.56;;;15.71;56.37
62895;BME280;49204;44.916;37.998;2023-03-15T13:42:26;100591.38;;;15.67;56.22
62895;BME280;49204;44.916;37.998;2023-03-15T13:45:10;100582.38;;;15.62;56.26
62895;BME280;49204;44.916;37.998;2023-03-15T13:47:41;100584.56;;;15.56;56.17
62895;BME280;49204;44.916;37.998;2023-03-15T13:50:19;100587.61;;;15.50;56.27
62895;BME280;49204;44.916;37.998;2023-03-15T13:52:48;100579.07;;;15.44;56.26